createdAt,value
2018-03-04T00:00:13.693Z,98.12
2018-03-04T00:02:41.337Z,115.93
2018-03-04T00:05:08.940Z,115.57
2018-03-04T00:07:36.510Z,111.60
2018-03-04T00:10:04.139Z,112.70
2018-03-04T00:12:31.686Z,119.30
2018-03-04T00:14:59.262Z,136.75
2018-03-04T00:17:26.853Z,107.32
2018-03-04T00:19:54.489Z,111.68
2018-03-04T00:22:33.770Z,112.10
2018-03-04T00:25:01.356Z,121.72
2018-03-04T00:27:28.977Z,123.90
2018-03-04T00:29:56.486Z,108.25
2018-03-04T00:32:24.047Z,107.97
2018-03-04T00:34:51.884Z,111.57
2018-03-04T00:37:19.444Z,109.53
2018-03-04T00:39:47.818Z,105.37
2018-03-04T00:42:16.253Z,113.62
2018-03-04T00:44:44.057Z,111.03
2018-03-04T00:47:11.610Z,112.28
2018-03-04T00:49:39.193Z,112.82
2018-03-04T00:52:06.793Z,118.60
2018-03-04T00:54:34.355Z,114.20
2018-03-04T00:57:02.723Z,111.15
2018-03-04T00:59:30.350Z,113.28
2018-03-04T01:01:58.257Z,124.68
2018-03-04T01:04:26.568Z,115.75
2018-03-04T01:06:54.149Z,104.82
2018-03-04T01:09:21.729Z,105.80
2018-03-04T01:11:49.379Z,115.50
2018-03-04T01:14:16.949Z,116.35
2018-03-04T01:16:44.520Z,119.75
2018-03-04T01:19:12.049Z,109.85
2018-03-04T01:21:39.588Z,113.10
2018-03-04T01:24:07.147Z,124.43
2018-03-04T01:26:34.723Z,112.93
2018-03-04T01:29:02.281Z,120.93
2018-03-04T01:31:29.862Z,108.05
2018-03-04T01:33:57.452Z,120.05
2018-03-04T01:36:25.801Z,105.82
2018-03-04T01:38:53.379Z,109.32
2018-03-04T01:41:21.397Z,116.28
2018-03-04T01:43:48.977Z,110.50
2018-03-04T01:46:16.557Z,116.45
2018-03-04T01:48:45.051Z,105.95
2018-03-04T01:51:12.618Z,117.00
2018-03-04T01:53:40.957Z,111.55
2018-03-04T01:56:08.492Z,119.03
2018-03-04T01:58:36.049Z,119.75
2018-03-04T02:01:03.617Z,111.18
2018-03-04T02:03:31.177Z,120.72
2018-03-04T02:05:58.766Z,123.85
2018-03-04T02:08:26.331Z,109.95
2018-03-04T02:10:54.250Z,129.75
2018-03-04T02:13:21.839Z,118.20
2018-03-04T02:15:49.421Z,113.43
2018-03-04T02:18:18.757Z,115.55
2018-03-04T02:20:47.122Z,112.97
2018-03-04T02:23:15.463Z,117.10
2018-03-04T02:25:44.728Z,121.68
2018-03-04T02:28:12.307Z,109.87
2018-03-04T02:30:39.885Z,122.07
2018-03-04T02:33:07.444Z,128.05
2018-03-04T02:35:36.106Z,127.18
2018-03-04T02:38:03.775Z,132.50
2018-03-04T02:40:31.692Z,122.47
2018-03-04T02:43:01.071Z,115.70
2018-03-04T02:45:28.665Z,102.78
2018-03-04T02:47:57.749Z,118.32
2018-03-04T02:50:26.068Z,123.87
2018-03-04T02:52:53.700Z,121.60
2018-03-04T02:55:21.276Z,111.95
2018-03-04T02:57:48.828Z,124.00
2018-03-04T03:00:16.468Z,119.03
2018-03-04T03:02:44.785Z,124.97
2018-03-04T03:05:12.452Z,115.95
2018-03-04T03:07:40.250Z,144.37
2018-03-04T03:10:08.645Z,124.62
2018-03-04T03:12:36.265Z,122.05
2018-03-04T03:15:03.897Z,123.32
2018-03-04T03:17:31.493Z,128.38
2018-03-04T03:19:59.038Z,122.93
2018-03-04T03:22:26.607Z,126.53
2018-03-04T03:24:55.177Z,137.60
2018-03-04T03:27:22.736Z,132.90
2018-03-04T03:29:50.356Z,115.18
2018-03-04T03:32:17.893Z,134.30
2018-03-04T03:34:45.522Z,124.78
2018-03-04T03:37:13.377Z,119.15
2018-03-04T03:39:40.915Z,129.15
2018-03-04T03:42:09.276Z,114.10
2018-03-04T03:44:36.885Z,130.68
2018-03-04T03:47:04.471Z,119.45
2018-03-04T03:49:32.137Z,115.00
2018-03-04T03:51:59.823Z,126.55
2018-03-04T03:54:28.258Z,126.00
2018-03-04T03:56:55.895Z,125.57
2018-03-04T03:59:23.519Z,121.40
2018-03-04T04:01:51.900Z,120.75
2018-03-04T04:04:19.514Z,131.75
2018-03-04T04:06:47.072Z,127.18
2018-03-04T04:09:14.679Z,125.68
2018-03-04T04:11:43.062Z,127.07
2018-03-04T04:14:10.855Z,126.25
2018-03-04T04:16:38.475Z,122.32
2018-03-04T04:19:06.847Z,140.15
2018-03-04T04:21:34.456Z,124.85
2018-03-04T04:24:02.088Z,129.73
2018-03-04T04:26:31.086Z,127.12
2018-03-04T04:28:59.240Z,123.53
2018-03-04T04:31:26.838Z,121.65
2018-03-04T04:33:54.440Z,119.40
2018-03-04T04:36:22.094Z,127.18
2018-03-04T04:38:49.726Z,127.53
2018-03-04T04:41:18.128Z,132.77
2018-03-04T04:43:46.210Z,136.77
2018-03-04T04:46:13.863Z,133.70
2018-03-04T04:48:41.479Z,120.45
2018-03-04T04:51:09.063Z,122.53
2018-03-04T04:53:36.717Z,130.87
2018-03-04T04:56:04.321Z,135.25
2018-03-04T04:58:31.899Z,121.50
2018-03-04T05:00:59.555Z,118.95
2018-03-04T05:03:27.150Z,130.68
2018-03-04T05:05:55.792Z,121.47
2018-03-04T05:08:23.403Z,132.80
2018-03-04T05:10:51.811Z,129.60
2018-03-04T05:13:19.439Z,119.68
2018-03-04T05:15:47.812Z,124.90
2018-03-04T05:18:16.173Z,127.00
2018-03-04T05:20:44.541Z,120.47
2018-03-04T05:23:12.134Z,117.18
2018-03-04T05:25:40.509Z,132.95
2018-03-04T05:28:08.113Z,127.28
2018-03-04T05:30:35.992Z,133.60
2018-03-04T05:33:03.587Z,124.90
2018-03-04T05:35:31.192Z,136.02
2018-03-04T05:37:59.511Z,121.80
2018-03-04T05:40:27.126Z,117.03
2018-03-04T05:42:54.773Z,123.07
2018-03-04T05:45:22.434Z,127.25
2018-03-04T05:47:50.871Z,123.40
2018-03-04T05:50:18.538Z,125.78
2018-03-04T05:52:46.127Z,121.37
2018-03-04T05:55:15.230Z,120.80
2018-03-04T05:57:43.589Z,135.23
2018-03-04T06:00:11.221Z,134.43
2018-03-04T06:02:38.835Z,128.98
2018-03-04T06:05:07.244Z,123.38
2018-03-04T06:07:35.430Z,136.37
2018-03-04T06:10:03.055Z,131.48
2018-03-04T06:12:30.677Z,123.62
2018-03-04T06:14:58.288Z,121.50
2018-03-04T06:17:25.878Z,111.68
2018-03-04T06:19:53.518Z,129.52
2018-03-04T06:22:21.506Z,121.20
2018-03-04T06:24:49.123Z,131.73
2018-03-04T06:27:17.457Z,137.65
2018-03-04T06:29:45.095Z,125.12
2018-03-04T06:32:12.683Z,120.28
2018-03-04T06:34:40.322Z,120.45
2018-03-04T06:37:07.962Z,123.90
2018-03-04T06:39:35.564Z,128.68
2018-03-04T06:42:03.173Z,124.22
2018-03-04T06:44:31.546Z,112.65
2018-03-04T06:46:59.189Z,136.07
2018-03-04T06:49:27.575Z,116.55
2018-03-04T06:51:55.231Z,127.65
2018-03-04T06:54:22.840Z,121.35
2018-03-04T06:56:50.437Z,120.15
2018-03-04T06:59:18.012Z,108.32
2018-03-04T07:01:45.581Z,120.68
2018-03-04T07:04:14.941Z,116.07
2018-03-04T07:06:43.327Z,112.97
2018-03-04T07:09:10.906Z,120.80
2018-03-04T07:11:38.556Z,113.10
2018-03-04T07:14:06.452Z,127.15
2018-03-04T07:16:34.062Z,126.85
2018-03-04T07:19:01.679Z,114.35
2018-03-04T07:21:29.338Z,113.32
2018-03-04T07:23:56.976Z,117.65
2018-03-04T07:26:25.379Z,121.47
2018-03-04T07:28:53.816Z,114.75
2018-03-04T07:31:21.397Z,125.68
2018-03-04T07:33:49.025Z,113.68
2018-03-04T07:36:16.638Z,118.18
2018-03-04T07:38:45.002Z,114.37
2018-03-04T07:41:12.637Z,117.22
2018-03-04T07:43:40.244Z,129.98
2018-03-04T07:46:07.860Z,129.95
2018-03-04T07:48:35.488Z,106.18
2018-03-04T07:51:03.086Z,116.22
2018-03-04T07:53:30.711Z,120.13
2018-03-04T07:55:58.583Z,116.70
2018-03-04T07:58:26.236Z,115.53
2018-03-04T08:00:53.850Z,123.62
2018-03-04T08:03:21.468Z,129.43
2018-03-04T08:05:49.168Z,125.85
2018-03-04T08:08:17.468Z,132.80
2018-03-04T08:10:45.083Z,117.78
2018-03-04T08:13:13.601Z,116.55
2018-03-04T08:15:41.199Z,121.87
2018-03-04T08:18:09.646Z,121.65
2018-03-04T08:20:37.268Z,115.62
2018-03-04T08:23:04.881Z,111.78
2018-03-04T08:25:33.263Z,110.10
2018-03-04T08:28:13.456Z,123.95
2018-03-04T08:30:41.035Z,99.55
2018-03-04T08:33:08.700Z,120.37
2018-03-04T08:35:36.294Z,125.03
2018-03-04T08:38:03.894Z,119.10
2018-03-04T08:40:31.482Z,106.93
2018-03-04T08:42:59.143Z,104.05
2018-03-04T08:45:26.769Z,111.18
2018-03-04T08:47:54.536Z,115.72
2018-03-04T08:50:22.152Z,121.95
2018-03-04T08:52:50.134Z,96.10
2018-03-04T08:55:18.582Z,111.88
2018-03-04T08:57:46.201Z,109.78
2018-03-04T09:00:13.827Z,114.15
2018-03-04T09:02:41.420Z,115.93
2018-03-04T09:05:09.014Z,104.43
2018-03-04T09:07:36.594Z,106.00
2018-03-04T09:10:05.076Z,117.47
2018-03-04T09:12:32.780Z,115.72
2018-03-04T09:15:00.418Z,129.15
2018-03-04T09:17:28.079Z,105.43
2018-03-04T09:19:56.097Z,111.47
2018-03-04T09:22:23.724Z,109.65
2018-03-04T09:24:52.150Z,112.15
2018-03-04T09:27:19.765Z,106.87
2018-03-04T09:29:48.149Z,108.75
2018-03-04T09:32:16.695Z,97.97
2018-03-04T09:34:44.732Z,116.00
2018-03-04T09:37:12.397Z,114.35
2018-03-04T09:39:40.169Z,114.53
2018-03-04T09:42:07.815Z,108.93
2018-03-04T09:44:35.425Z,100.87
2018-03-04T09:47:03.053Z,102.70
2018-03-04T09:49:30.700Z,105.57
2018-03-04T09:51:58.319Z,109.93
2018-03-04T09:54:25.905Z,105.18
2018-03-04T09:56:53.990Z,99.00
2018-03-04T09:59:22.533Z,114.65
2018-03-04T10:01:50.944Z,101.12
2018-03-04T10:04:19.221Z,105.20
2018-03-04T10:06:46.828Z,106.25
2018-03-04T10:09:14.465Z,93.47
2018-03-04T10:11:42.120Z,107.53
2018-03-04T10:14:09.738Z,108.72
2018-03-04T10:16:38.924Z,87.60
2018-03-04T10:19:06.520Z,100.25
2018-03-04T10:21:34.451Z,107.10
2018-03-04T10:24:02.047Z,107.50
2018-03-04T10:26:29.642Z,100.62
2018-03-04T10:28:57.238Z,88.85
2018-03-04T10:31:25.945Z,89.78
2018-03-04T10:33:53.566Z,94.70
2018-03-04T10:36:21.170Z,88.20
2018-03-04T10:38:48.776Z,105.32
2018-03-04T10:41:17.859Z,89.50
2018-03-04T10:43:45.473Z,93.00
2018-03-04T10:46:13.135Z,92.68
2018-03-04T10:48:40.765Z,90.30
2018-03-04T10:51:08.386Z,88.25
2018-03-04T10:53:36.008Z,104.68
2018-03-04T10:56:03.620Z,89.07
2018-03-04T10:58:31.270Z,88.40
2018-03-04T11:01:10.505Z,86.25
2018-03-04T11:03:38.240Z,92.05
2018-03-04T11:06:05.826Z,87.43
2018-03-04T11:08:34.288Z,83.45
2018-03-04T11:11:01.990Z,78.70
2018-03-04T11:13:30.050Z,83.30
2018-03-04T11:15:57.647Z,86.45
2018-03-04T11:18:25.332Z,89.22
2018-03-04T11:20:52.967Z,94.37
2018-03-04T11:23:20.606Z,87.88
2018-03-04T11:25:48.220Z,85.82
2018-03-04T11:28:16.910Z,82.47
2018-03-04T11:30:44.484Z,83.18
2018-03-04T11:33:12.648Z,83.85
2018-03-04T11:35:40.248Z,84.75
2018-03-04T11:38:07.860Z,84.87
2018-03-04T11:40:35.466Z,74.72
2018-03-04T11:43:03.053Z,82.10
2018-03-04T11:45:30.649Z,74.78
2018-03-04T11:47:59.153Z,76.60
2018-03-04T11:50:26.830Z,79.35
2018-03-04T11:52:54.395Z,89.68
2018-03-04T11:55:22.032Z,78.35
2018-03-04T11:57:49.628Z,76.82
2018-03-04T12:00:17.269Z,80.62
2018-03-04T12:02:44.920Z,77.18
2018-03-04T12:05:12.523Z,72.60
2018-03-04T12:07:40.161Z,67.40
2018-03-04T12:10:07.750Z,69.32
2018-03-04T12:12:35.356Z,62.83
2018-03-04T12:15:03.725Z,67.95
2018-03-04T12:17:33.052Z,68.93
2018-03-04T12:20:00.714Z,73.37
2018-03-04T12:22:28.391Z,66.18
2018-03-04T12:24:55.966Z,61.47
2018-03-04T12:27:23.622Z,68.70
2018-03-04T12:29:51.370Z,64.12
2018-03-04T12:32:19.258Z,66.07
2018-03-04T12:34:46.877Z,64.03
2018-03-04T12:37:14.437Z,60.75
2018-03-04T12:39:42.100Z,61.22
2018-03-04T12:42:09.751Z,61.17
2018-03-04T12:44:38.180Z,63.60
2018-03-04T12:47:05.793Z,55.15
2018-03-04T12:49:34.161Z,54.05
2018-03-04T12:52:02.574Z,54.72
2018-03-04T12:54:30.191Z,57.45
2018-03-04T12:56:57.780Z,62.15
2018-03-04T12:59:25.527Z,53.65
2018-03-04T13:01:53.289Z,60.12
2018-03-04T13:04:21.662Z,57.22
2018-03-04T13:06:49.249Z,62.78
2018-03-04T13:09:17.623Z,64.03
2018-03-04T13:11:45.288Z,54.63
2018-03-04T13:14:14.597Z,58.05
2018-03-04T13:16:42.950Z,46.50
2018-03-04T13:19:11.346Z,53.30
2018-03-04T13:21:38.946Z,55.55
2018-03-04T13:24:06.537Z,52.22
2018-03-04T13:26:34.185Z,47.50
2018-03-04T13:29:01.881Z,48.95
2018-03-04T13:31:30.381Z,68.00
2018-03-04T13:33:57.967Z,48.95
2018-03-04T13:36:25.567Z,50.17
2018-03-04T13:38:53.227Z,44.88
2018-03-04T13:41:20.818Z,46.15
2018-03-04T13:43:48.520Z,46.75
2018-03-04T13:46:16.961Z,57.45
2018-03-04T13:48:44.633Z,46.13
2018-03-04T13:51:13.084Z,44.00
2018-03-04T13:53:41.275Z,45.55
2018-03-04T13:56:08.879Z,63.28
2018-03-04T13:58:36.615Z,48.75
2018-03-04T14:01:04.295Z,55.47
2018-03-04T14:03:31.920Z,57.10
2018-03-04T14:06:00.385Z,47.65
2018-03-04T14:08:28.912Z,51.30
2018-03-04T14:10:56.498Z,51.60
2018-03-04T14:13:24.879Z,47.00
2018-03-04T14:15:53.291Z,47.90
2018-03-04T14:18:20.887Z,42.00
2018-03-04T14:20:48.509Z,55.05
2018-03-04T14:23:16.140Z,43.55
2018-03-04T14:25:43.738Z,44.55
2018-03-04T14:28:11.395Z,42.83
2018-03-04T14:30:38.986Z,38.42
2018-03-04T14:33:06.621Z,43.53
2018-03-04T14:35:35.011Z,38.38
2018-03-04T14:38:03.856Z,47.05
2018-03-04T14:40:32.567Z,34.92
2018-03-04T14:43:00.153Z,44.20
2018-03-04T14:45:27.789Z,36.08
2018-03-04T14:47:55.518Z,37.45
2018-03-04T14:50:23.123Z,42.75
2018-03-04T14:52:50.726Z,33.67
2018-03-04T14:55:18.365Z,55.60
2018-03-04T14:57:45.933Z,32.72
2018-03-04T15:00:13.620Z,36.58
2018-03-04T15:02:42.299Z,36.63
2018-03-04T15:05:09.890Z,35.58
2018-03-04T15:07:37.470Z,37.20
2018-03-04T15:10:05.084Z,37.40
2018-03-04T15:12:32.704Z,34.03
2018-03-04T15:15:00.340Z,33.78
2018-03-04T15:17:27.997Z,35.75
2018-03-04T15:19:55.575Z,32.97
2018-03-04T15:22:23.969Z,33.92
2018-03-04T15:24:51.590Z,38.53
2018-03-04T15:27:19.228Z,34.47
2018-03-04T15:29:46.856Z,33.83
2018-03-04T15:32:15.230Z,40.85
2018-03-04T15:34:43.704Z,43.00
2018-03-04T15:37:11.387Z,36.75
2018-03-04T15:39:39.762Z,41.70
2018-03-04T15:42:09.222Z,47.38
2018-03-04T15:44:36.855Z,40.17
2018-03-04T15:47:04.821Z,48.45
2018-03-04T15:49:32.442Z,48.42
2018-03-04T15:52:00.103Z,47.65
2018-03-04T15:54:28.884Z,50.38
2018-03-04T15:56:56.502Z,53.53
2018-03-04T15:59:24.197Z,48.15
2018-03-04T16:01:51.804Z,48.47
2018-03-04T16:04:20.290Z,50.63
2018-03-04T16:06:47.998Z,49.88
2018-03-04T16:09:15.625Z,48.20
2018-03-04T16:11:44.386Z,56.95
2018-03-04T16:14:12.804Z,61.53
2018-03-04T16:16:40.463Z,47.70
2018-03-04T16:19:08.477Z,57.88
2018-03-04T16:21:36.089Z,50.45
2018-03-04T16:24:03.724Z,53.97
2018-03-04T16:26:32.110Z,59.47
2018-03-04T16:28:59.738Z,55.33
2018-03-04T16:31:27.358Z,53.85
2018-03-04T16:33:54.980Z,54.60
2018-03-04T16:36:23.368Z,56.65
2018-03-04T16:38:51.039Z,56.10
2018-03-04T16:41:18.668Z,60.25
2018-03-04T16:43:46.314Z,62.17
2018-03-04T16:46:13.905Z,58.58
2018-03-04T16:48:42.290Z,69.22
2018-03-04T16:51:10.692Z,53.47
2018-03-04T16:53:38.308Z,54.80
2018-03-04T16:56:05.925Z,51.85
2018-03-04T16:58:34.550Z,53.80
2018-03-04T17:01:02.306Z,54.08
2018-03-04T17:03:29.938Z,63.40
2018-03-04T17:05:57.653Z,60.65
2018-03-04T17:08:26.048Z,54.72
2018-03-04T17:10:54.394Z,53.53
2018-03-04T17:13:22.058Z,56.60
2018-03-04T17:15:49.984Z,49.78
2018-03-04T17:18:18.235Z,56.75
2018-03-04T17:20:45.846Z,51.92
2018-03-04T17:23:13.576Z,50.75
2018-03-04T17:25:41.267Z,61.13
2018-03-04T17:28:09.080Z,46.65
2018-03-04T17:30:37.458Z,54.60
2018-03-04T17:33:05.838Z,51.67
2018-03-04T17:35:33.477Z,54.60
2018-03-04T17:38:01.109Z,52.42
2018-03-04T17:40:28.725Z,59.65
2018-03-04T17:42:56.390Z,51.08
2018-03-04T17:45:24.008Z,44.42
2018-03-04T17:47:51.651Z,56.25
2018-03-04T17:50:19.261Z,46.03
2018-03-04T17:52:47.650Z,46.55
2018-03-04T17:55:16.188Z,43.20
2018-03-04T17:57:43.804Z,52.50
2018-03-04T18:00:13.006Z,54.20
2018-03-04T18:02:40.665Z,55.30
2018-03-04T18:05:08.308Z,43.20
2018-03-04T18:07:37.349Z,54.25
2018-03-04T18:10:04.992Z,40.90
2018-03-04T18:12:32.599Z,45.25
2018-03-04T18:15:00.379Z,40.45
2018-03-04T18:17:28.791Z,39.58
2018-03-04T18:19:56.410Z,42.25
2018-03-04T18:22:24.952Z,39.13
2018-03-04T18:24:52.555Z,36.55
2018-03-04T18:27:20.186Z,38.00
2018-03-04T18:29:47.821Z,37.65
2018-03-04T18:32:15.427Z,45.53
2018-03-04T18:34:43.871Z,45.47
2018-03-04T18:37:11.546Z,35.22
2018-03-04T18:39:39.192Z,34.97
2018-03-04T18:42:06.894Z,34.67
2018-03-04T18:44:34.602Z,35.10
2018-03-04T18:47:02.194Z,39.22
2018-03-04T18:49:30.636Z,42.40
2018-03-04T18:51:59.027Z,37.00
2018-03-04T18:54:26.802Z,34.92
2018-03-04T18:56:54.461Z,32.05
2018-03-04T18:59:22.097Z,39.25
2018-03-04T19:01:50.528Z,33.42
2018-03-04T19:04:19.054Z,39.13
2018-03-04T19:06:47.430Z,37.10
2018-03-04T19:09:15.228Z,32.97
2018-03-04T19:11:42.913Z,36.40
2018-03-04T19:14:10.547Z,33.20
2018-03-04T19:16:38.166Z,35.53
2018-03-04T19:19:06.059Z,34.17
2018-03-04T19:21:34.562Z,39.30
2018-03-04T19:24:02.224Z,32.72
2018-03-04T19:26:29.851Z,31.48
2018-03-04T19:28:57.510Z,30.98
2018-03-04T19:31:25.127Z,37.00
2018-03-04T19:33:52.759Z,34.45
2018-03-04T19:36:21.207Z,37.90
2018-03-04T19:38:48.830Z,33.88
2018-03-04T19:41:16.467Z,35.15
2018-03-04T19:43:44.117Z,34.53
2018-03-04T19:46:13.515Z,31.35
2018-03-04T19:48:42.046Z,37.03
2018-03-04T19:51:09.728Z,29.00
2018-03-04T19:53:37.380Z,35.35
2018-03-04T19:56:05.889Z,35.35
2018-03-04T19:58:33.533Z,38.85
2018-03-04T20:01:01.985Z,37.05
2018-03-04T20:03:29.587Z,34.90
2018-03-04T20:05:57.212Z,37.60
2018-03-04T20:08:24.923Z,31.27
2018-03-04T20:10:53.301Z,39.97
2018-03-04T20:13:21.344Z,31.58
2018-03-04T20:15:48.949Z,33.65
2018-03-04T20:18:16.590Z,30.50
2018-03-04T20:20:44.249Z,32.17
2018-03-04T20:23:11.898Z,40.67
2018-03-04T20:25:40.398Z,38.67
2018-03-04T20:28:08.849Z,36.42
2018-03-04T20:30:36.535Z,31.17
2018-03-04T20:33:04.922Z,34.10
2018-03-04T20:35:33.403Z,35.45
2018-03-04T20:38:01.779Z,42.28
2018-03-04T20:40:29.406Z,40.53
2018-03-04T20:42:56.980Z,45.67
2018-03-04T20:45:25.327Z,45.78
2018-03-04T20:47:53.784Z,42.28
2018-03-04T20:50:21.428Z,48.80
2018-03-04T20:52:49.863Z,42.33
2018-03-04T20:55:17.469Z,44.92
2018-03-04T20:57:45.065Z,48.22
2018-03-04T21:00:12.674Z,49.60
2018-03-04T21:02:40.245Z,41.47
2018-03-04T21:05:07.906Z,49.10
2018-03-04T21:07:35.622Z,49.15
2018-03-04T21:10:03.252Z,47.62
2018-03-04T21:12:31.618Z,46.95
2018-03-04T21:14:59.987Z,46.63
2018-03-04T21:17:28.474Z,49.42
2018-03-04T21:19:56.557Z,51.58
2018-03-04T21:22:24.178Z,46.42
2018-03-04T21:24:51.757Z,47.88
2018-03-04T21:27:19.431Z,45.85
2018-03-04T21:29:47.101Z,55.03
2018-03-04T21:32:14.715Z,55.58
2018-03-04T21:34:42.343Z,44.13
2018-03-04T21:37:09.936Z,54.70
2018-03-04T21:39:37.536Z,47.25
2018-03-04T21:42:05.148Z,58.80
2018-03-04T21:44:32.776Z,65.93
2018-03-04T21:47:01.146Z,53.15
2018-03-04T21:49:29.572Z,44.47
2018-03-04T21:51:57.207Z,54.60
2018-03-04T21:54:24.824Z,54.60
2018-03-04T21:56:52.435Z,72.47
2018-03-04T21:59:20.311Z,64.90
2018-03-04T22:01:48.039Z,50.55
2018-03-04T22:04:16.427Z,50.47
2018-03-04T22:06:44.752Z,61.78
2018-03-04T22:09:12.362Z,61.37
2018-03-04T22:11:40.777Z,64.68
2018-03-04T22:14:09.163Z,50.22
2018-03-04T22:16:37.189Z,61.80
2018-03-04T22:19:04.817Z,70.75
2018-03-04T22:21:32.762Z,57.55
2018-03-04T22:24:00.400Z,54.70
2018-03-04T22:26:28.747Z,58.03
2018-03-04T22:28:58.104Z,63.13
2018-03-04T22:31:25.705Z,61.30
2018-03-04T22:33:53.311Z,71.90
2018-03-04T22:36:20.942Z,55.75
2018-03-04T22:38:49.302Z,56.45
2018-03-04T22:41:16.895Z,66.70
2018-03-04T22:43:44.482Z,64.10
2018-03-04T22:46:12.114Z,55.50
2018-03-04T22:48:39.715Z,55.22
2018-03-04T22:51:07.368Z,55.28
2018-03-04T22:53:34.948Z,55.70
2018-03-04T22:56:02.569Z,51.53
2018-03-04T22:58:30.805Z,74.18
2018-03-04T23:00:58.720Z,53.38
2018-03-04T23:03:26.338Z,55.17
2018-03-04T23:05:53.924Z,60.58
2018-03-04T23:08:21.530Z,42.35
2018-03-04T23:10:50.328Z,53.55
2018-03-04T23:13:17.920Z,42.40
2018-03-04T23:15:46.277Z,41.40
2018-03-04T23:18:13.883Z,47.65
2018-03-04T23:20:41.679Z,42.47
2018-03-04T23:23:09.283Z,42.00
2018-03-04T23:25:37.686Z,38.38
2018-03-04T23:28:05.246Z,38.50
2018-03-04T23:30:32.877Z,37.45
2018-03-04T23:33:01.254Z,44.30
2018-03-04T23:35:29.125Z,37.30
2018-03-04T23:37:56.709Z,40.05
2018-03-04T23:40:24.308Z,39.95
2018-03-04T23:42:51.904Z,38.67
2018-03-04T23:45:19.456Z,40.85
2018-03-04T23:47:47.220Z,31.17
2018-03-04T23:50:14.877Z,42.95
2018-03-04T23:52:42.475Z,36.92
2018-03-04T23:55:10.104Z,36.03
2018-03-04T23:57:37.680Z,40.45
